Meteo Giornale » Osservazioni meteo Canada » Kelp Reefs B C

ore: 18:00 - Osservazioni Meteo Kelp Reefs B C
Lat. 48° 33' N Lon. 123° 14' W Alt. 0 metri s.l.m.

sereno

0 °C

Sereno

Temp. 24 Ore

0 °C

0 °C

Nord

13 Km/h

Dew point 0 °C

Umidità 47 %

Visibilità  10 Km

Il sole sorge alle ore 06:29

Il sole tramonta alle ore 19:56

Data e Ora Cielo e Fenomeni T °C DP °C Um. % Pres. hPa Vis. km Vento km/h
Oggi h: 18:00 sereno Sereno 0 0 47 0 10 N 13
Oggi h: 17:00 sereno Sereno 0 0 44 0 10 N 14.8
Oggi h: 16:00 sereno Sereno 0 0 44 0 0 N/NE 13
Oggi h: 15:00 sereno Sereno 0 0 47 0 0 N 13
Oggi h: 14:00 sereno Sereno 0 0 50 0 0 N 13
Oggi h: 13:00 sereno Sereno 0 0 53 0 0 N/NE 13
Oggi h: 12:00 sereno Sereno 0 0 56 0 0 N 13
Oggi h: 11:00 sereno Sereno 0 0 59 0 0 E/NE 14.8
Oggi h: 10:00 sereno Sereno 0 0 67 0 0 NE 14.8
Oggi h: 09:00 sereno Sereno 0 0 67 0 0 N 14.8
Oggi h: 08:00 sereno Sereno 0 0 76 0 0 N/NE 11.1
Oggi h: 07:00 sereno Sereno 0 0 76 0 0 NO 5.5
Oggi h: 06:00 sereno Sereno 0 0 76 0 0 NE 5.5
Oggi h: 05:00 sereno Sereno 0 0 82 0 0 NE 5.5
Oggi h: 04:00 sereno Sereno 0 0 82 0 0 N 5.5
Oggi h: 03:00 sereno Sereno 0 0 82 0 0 N/NE 7.4
Oggi h: 02:00 sereno Sereno 0 0 87 0 0 N/NE 7.4
Oggi h: 01:00 sereno Sereno 0 0 87 0 0 N 5.5
Oggi h: 00:00 sereno Sereno 0 0 87 0 0 N/NE 5.5
Ieri h: 23:00 sereno Sereno 0 0 93 0 0 SO 1.8
Ieri h: 22:00 sereno Sereno 0 0 93 0 0 O 3.7
Ieri h: 21:00 sereno Sereno 0 0 87 0 0 SE 9.3
Ieri h: 20:00 sereno Sereno 0 0 77 0 0 S/SE 16.7